sensor_id;sensor_type;location;lat;lon;timestamp;pressure;altitude;pressure_sealevel;temperature;humidity
35291;BME280;21411;50.024;19.220;2023-06-26T00:00:44;98966.05;;;15.83;100.00
35291;BME280;21411;50.024;19.220;2023-06-26T00:03:30;98968.23;;;15.80;100.00
35291;BME280;21411;50.024;19.220;2023-06-26T00:05:58;98969.30;;;15.78;100.00
35291;BME280;21411;50.024;19.220;2023-06-26T00:08:27;98969.57;;;15.73;100.00
35291;BME280;21411;50.024;19.220;2023-06-26T00:10:54;98964.15;;;15.69;100.00
35291;BME280;21411;50.024;19.220;2023-06-26T00:13:22;98963.58;;;15.66;100.00
35291;BME280;21411;50.024;19.220;2023-06-26T00:15:50;98961.48;;;15.61;100.00
35291;BME280;21411;50.024;19.220;2023-06-26T00:18:16;98962.60;;;15.56;100.00
35291;BME280;21411;50.024;19.220;2023-06-26T00:20:43;98960.20;;;15.51;100.00
35291;BME280;21411;50.024;19.220;2023-06-26T00:23:11;98960.73;;;15.45;100.00
35291;BME280;21411;50.024;19.220;2023-06-26T00:25:39;98968.16;;;15.42;100.00
35291;BME280;21411;50.024;19.220;2023-06-26T00:28:06;98962.74;;;15.38;100.00
35291;BME280;21411;50.024;19.220;2023-06-26T00:30:32;98963.59;;;15.37;100.00
35291;BME280;21411;50.024;19.220;2023-06-26T00:32:59;98964.17;;;15.34;100.00
35291;BME280;21411;50.024;19.220;2023-06-26T00:35:25;98963.65;;;15.28;100.00
35291;BME280;21411;50.024;19.220;2023-06-26T00:37:52;98966.02;;;15.21;100.00
35291;BME280;21411;50.024;19.220;2023-06-26T00:40:18;98968.45;;;15.16;100.00
35291;BME280;21411;50.024;19.220;2023-06-26T00:42:45;98970.39;;;15.14;100.00
35291;BME280;21411;50.024;19.220;2023-06-26T00:45:11;98967.67;;;15.12;100.00
35291;BME280;21411;50.024;19.220;2023-06-26T00:47:38;98965.55;;;15.10;100.00
35291;BME280;21411;50.024;19.220;2023-06-26T00:50:05;98966.80;;;15.06;100.00
35291;BME280;21411;50.024;19.220;2023-06-26T00:52:32;98967.55;;;15.01;100.00
35291;BME280;21411;50.024;19.220;2023-06-26T00:54:59;98964.98;;;14.98;100.00
35291;BME280;21411;50.024;19.220;2023-06-26T00:57:26;98959.14;;;14.95;100.00
35291;BME280;21411;50.024;19.220;2023-06-26T00:59:53;98958.09;;;14.88;100.00
35291;BME280;21411;50.024;19.220;2023-06-26T01:02:20;98958.11;;;14.84;100.00
35291;BME280;21411;50.024;19.220;2023-06-26T01:04:50;98958.85;;;14.82;100.00
35291;BME280;21411;50.024;19.220;2023-06-26T01:07:18;98959.42;;;14.79;100.00
35291;BME280;21411;50.024;19.220;2023-06-26T01:09:47;98958.66;;;14.78;100.00
35291;BME280;21411;50.024;19.220;2023-06-26T01:12:14;98958.14;;;14.76;100.00
35291;BME280;21411;50.024;19.220;2023-06-26T01:14:41;98956.09;;;14.74;100.00
35291;BME280;21411;50.024;19.220;2023-06-26T01:17:09;98958.77;;;14.72;100.00
35291;BME280;21411;50.024;19.220;2023-06-26T01:19:42;98957.96;;;14.67;100.00
35291;BME280;21411;50.024;19.220;2023-06-26T01:22:19;98955.72;;;14.63;100.00
35291;BME280;21411;50.024;19.220;2023-06-26T01:25:28;98955.14;;;14.60;100.00
35291;BME280;21411;50.024;19.220;2023-06-26T01:27:56;98956.23;;;14.58;100.00
35291;BME280;21411;50.024;19.220;2023-06-26T01:30:23;98954.28;;;14.55;100.00
35291;BME280;21411;50.024;19.220;2023-06-26T01:32:51;98951.98;;;14.53;100.00
35291;BME280;21411;50.024;19.220;2023-06-26T01:35:18;98950.16;;;14.50;100.00
35291;BME280;21411;50.024;19.220;2023-06-26T01:37:46;98949.24;;;14.49;100.00
35291;BME280;21411;50.024;19.220;2023-06-26T01:40:12;98950.79;;;14.47;100.00
35291;BME280;21411;50.024;19.220;2023-06-26T01:42:39;98948.19;;;14.47;100.00
35291;BME280;21411;50.024;19.220;2023-06-26T01:45:15;98943.17;;;14.44;100.00
35291;BME280;21411;50.024;19.220;2023-06-26T01:47:49;98945.66;;;14.43;100.00
35291;BME280;21411;50.024;19.220;2023-06-26T01:50:18;98940.12;;;14.40;100.00
35291;BME280;21411;50.024;19.220;2023-06-26T01:53:19;98942.51;;;14.38;100.00
35291;BME280;21411;50.024;19.220;2023-06-26T01:55:55;98945.39;;;14.33;100.00
35291;BME280;21411;50.024;19.220;2023-06-26T01:58:25;98945.81;;;14.28;100.00
35291;BME280;21411;50.024;19.220;2023-06-26T02:00:53;98946.33;;;14.26;100.00
35291;BME280;21411;50.024;19.220;2023-06-26T02:03:20;98945.81;;;14.23;100.00
35291;BME280;21411;50.024;19.220;2023-06-26T02:05:46;98944.17;;;14.20;100.00
35291;BME280;21411;50.024;19.220;2023-06-26T02:08:14;98948.62;;;14.18;100.00
35291;BME280;21411;50.024;19.220;2023-06-26T02:10:41;98948.27;;;14.15;100.00
35291;BME280;21411;50.024;19.220;2023-06-26T02:13:08;98948.79;;;14.14;100.00
35291;BME280;21411;50.024;19.220;2023-06-26T02:15:34;98942.15;;;14.12;100.00
35291;BME280;21411;50.024;19.220;2023-06-26T02:18:01;98941.73;;;14.08;100.00
35291;BME280;21411;50.024;19.220;2023-06-26T02:20:28;98942.08;;;14.06;100.00
35291;BME280;21411;50.024;19.220;2023-06-26T02:22:54;98938.92;;;14.05;100.00
35291;BME280;21411;50.024;19.220;2023-06-26T02:25:21;98939.25;;;14.03;100.00
35291;BME280;21411;50.024;19.220;2023-06-26T02:27:48;98938.20;;;14.03;100.00
35291;BME280;21411;50.024;19.220;2023-06-26T02:30:14;98939.47;;;14.03;100.00
35291;BME280;21411;50.024;19.220;2023-06-26T02:32:41;98939.71;;;14.02;100.00
35291;BME280;21411;50.024;19.220;2023-06-26T02:35:08;98937.27;;;14.01;100.00
35291;BME280;21411;50.024;19.220;2023-06-26T02:37:34;98936.55;;;14.01;100.00
35291;BME280;21411;50.024;19.220;2023-06-26T02:40:01;98939.04;;;14.02;100.00
35291;BME280;21411;50.024;19.220;2023-06-26T02:42:27;98943.79;;;14.02;100.00
35291;BME280;21411;50.024;19.220;2023-06-26T02:44:54;98944.22;;;14.04;100.00
35291;BME280;21411;50.024;19.220;2023-06-26T02:47:20;98945.07;;;14.04;100.00
35291;BME280;21411;50.024;19.220;2023-06-26T02:49:47;98946.63;;;14.05;100.00
35291;BME280;21411;50.024;19.220;2023-06-26T02:52:13;98945.44;;;14.07;100.00
35291;BME280;21411;50.024;19.220;2023-06-26T02:54:40;98942.86;;;14.10;100.00
35291;BME280;21411;50.024;19.220;2023-06-26T02:57:06;98942.43;;;14.13;100.00
35291;BME280;21411;50.024;19.220;2023-06-26T02:59:34;98944.28;;;14.16;100.00
35291;BME280;21411;50.024;19.220;2023-06-26T03:02:00;98945.96;;;14.20;100.00
35291;BME280;21411;50.024;19.220;2023-06-26T03:04:27;98946.13;;;14.24;100.00
35291;BME280;21411;50.024;19.220;2023-06-26T03:06:53;98946.91;;;14.30;100.00
35291;BME280;21411;50.024;19.220;2023-06-26T03:09:20;98945.31;;;14.34;100.00
35291;BME280;21411;50.024;19.220;2023-06-26T03:11:46;98944.98;;;14.38;100.00
35291;BME280;21411;50.024;19.220;2023-06-26T03:14:13;98943.73;;;14.42;100.00
35291;BME280;21411;50.024;19.220;2023-06-26T03:16:40;98945.92;;;14.46;100.00
35291;BME280;21411;50.024;19.220;2023-06-26T03:19:07;98947.14;;;14.48;100.00
35291;BME280;21411;50.024;19.220;2023-06-26T03:21:33;98943.84;;;14.54;100.00
35291;BME280;21411;50.024;19.220;2023-06-26T03:24:00;98942.48;;;14.62;100.00
35291;BME280;21411;50.024;19.220;2023-06-26T03:26:26;98948.70;;;14.71;100.00
35291;BME280;21411;50.024;19.220;2023-06-26T03:28:54;98944.92;;;14.79;100.00
35291;BME280;21411;50.024;19.220;2023-06-26T03:31:21;98944.27;;;15.08;100.00
35291;BME280;21411;50.024;19.220;2023-06-26T03:33:48;98942.02;;;16.10;100.00
35291;BME280;21411;50.024;19.220;2023-06-26T03:36:14;98940.72;;;17.17;100.00
35291;BME280;21411;50.024;19.220;2023-06-26T03:38:41;98940.55;;;18.07;100.00
35291;BME280;21411;50.024;19.220;2023-06-26T03:41:07;98937.88;;;18.80;100.00
35291;BME280;21411;50.024;19.220;2023-06-26T03:43:34;98941.84;;;19.45;100.00
35291;BME280;21411;50.024;19.220;2023-06-26T03:46:00;98943.75;;;20.10;100.00
35291;BME280;21411;50.024;19.220;2023-06-26T03:48:27;98948.98;;;20.70;99.59
35291;BME280;21411;50.024;19.220;2023-06-26T03:50:54;98946.52;;;21.29;95.79
35291;BME280;21411;50.024;19.220;2023-06-26T03:53:20;98945.47;;;21.84;91.70
35291;BME280;21411;50.024;19.220;2023-06-26T03:55:47;98950.16;;;22.36;88.92
35291;BME280;21411;50.024;19.220;2023-06-26T03:58:13;98951.09;;;22.91;85.47
35291;BME280;21411;50.024;19.220;2023-06-26T04:00:40;98954.59;;;23.41;82.36
35291;BME280;21411;50.024;19.220;2023-06-26T04:03:07;98953.52;;;23.77;79.75
35291;BME280;21411;50.024;19.220;2023-06-26T04:05:34;98953.65;;;24.17;78.02
35291;BME280;21411;50.024;19.220;2023-06-26T04:08:00;98954.48;;;24.68;76.40
35291;BME280;21411;50.024;19.220;2023-06-26T04:10:27;98954.23;;;25.11;74.61
35291;BME280;21411;50.024;19.220;2023-06-26T04:12:54;98947.42;;;25.49;72.42
35291;BME280;21411;50.024;19.220;2023-06-26T04:15:20;98947.59;;;25.70;70.66
35291;BME280;21411;50.024;19.220;2023-06-26T04:17:47;98945.39;;;25.94;69.29
35291;BME280;21411;50.024;19.220;2023-06-26T04:20:13;98947.04;;;26.03;68.35
35291;BME280;21411;50.024;19.220;2023-06-26T04:22:41;98945.59;;;26.20;67.24
35291;BME280;21411;50.024;19.220;2023-06-26T04:25:08;98941.74;;;26.26;65.99
35291;BME280;21411;50.024;19.220;2023-06-26T04:27:35;98937.87;;;26.39;65.15
35291;BME280;21411;50.024;19.220;2023-06-26T04:30:01;98935.36;;;26.53;64.09
35291;BME280;21411;50.024;19.220;2023-06-26T04:32:28;98934.69;;;26.56;63.19
35291;BME280;21411;50.024;19.220;2023-06-26T04:34:54;98938.98;;;26.44;62.60
35291;BME280;21411;50.024;19.220;2023-06-26T04:37:22;98933.30;;;26.72;62.46
35291;BME280;21411;50.024;19.220;2023-06-26T04:39:48;98935.00;;;27.02;61.65
35291;BME280;21411;50.024;19.220;2023-06-26T04:42:15;98936.95;;;27.19;60.63
35291;BME280;21411;50.024;19.220;2023-06-26T04:44:41;98938.09;;;27.33;60.17
35291;BME280;21411;50.024;19.220;2023-06-26T04:47:08;98938.46;;;27.58;59.69
35291;BME280;21411;50.024;19.220;2023-06-26T04:49:35;98939.95;;;27.78;58.97
35291;BME280;21411;50.024;19.220;2023-06-26T04:52:02;98936.26;;;27.91;58.40
35291;BME280;21411;50.024;19.220;2023-06-26T04:54:29;98934.55;;;28.06;57.75
35291;BME280;21411;50.024;19.220;2023-06-26T04:56:56;98936.42;;;28.10;56.97
35291;BME280;21411;50.024;19.220;2023-06-26T04:59:23;98935.41;;;28.14;56.87
35291;BME280;21411;50.024;19.220;2023-06-26T05:01:49;98940.34;;;28.29;56.75
35291;BME280;21411;50.024;19.220;2023-06-26T05:04:16;98943.59;;;28.49;55.89
35291;BME280;21411;50.024;19.220;2023-06-26T05:06:43;98945.84;;;28.46;54.97
35291;BME280;21411;50.024;19.220;2023-06-26T05:09:09;98944.34;;;28.24;54.72
35291;BME280;21411;50.024;19.220;2023-06-26T05:11:37;98945.96;;;28.18;54.68
35291;BME280;21411;50.024;19.220;2023-06-26T05:14:04;98943.72;;;28.19;54.63
35291;BME280;21411;50.024;19.220;2023-06-26T05:16:33;98945.14;;;28.20;54.50
35291;BME280;21411;50.024;19.220;2023-06-26T05:19:01;98945.25;;;28.24;54.33
35291;BME280;21411;50.024;19.220;2023-06-26T05:21:28;98945.80;;;28.24;54.05
35291;BME280;21411;50.024;19.220;2023-06-26T05:23:56;98949.03;;;28.29;53.94
35291;BME280;21411;50.024;19.220;2023-06-26T05:26:24;98944.90;;;28.36;54.18
35291;BME280;21411;50.024;19.220;2023-06-26T05:28:52;98945.64;;;28.57;54.04
35291;BME280;21411;50.024;19.220;2023-06-26T05:31:19;98943.04;;;28.80;53.88
35291;BME280;21411;50.024;19.220;2023-06-26T05:33:46;98945.51;;;29.02;53.45
35291;BME280;21411;50.024;19.220;2023-06-26T05:36:15;98945.13;;;29.20;52.96
35291;BME280;21411;50.024;19.220;2023-06-26T05:38:42;98945.92;;;29.26;52.62
35291;BME280;21411;50.024;19.220;2023-06-26T05:41:09;98940.71;;;29.32;51.85
35291;BME280;21411;50.024;19.220;2023-06-26T05:43:36;98938.97;;;29.29;50.82
35291;BME280;21411;50.024;19.220;2023-06-26T05:46:03;98939.46;;;29.22;49.87
35291;BME280;21411;50.024;19.220;2023-06-26T05:48:29;98937.44;;;29.01;49.47
35291;BME280;21411;50.024;19.220;2023-06-26T05:50:56;98937.24;;;28.90;49.83
35291;BME280;21411;50.024;19.220;2023-06-26T05:53:23;98930.90;;;28.98;49.86
35291;BME280;21411;50.024;19.220;2023-06-26T05:55:50;98934.35;;;29.07;49.83
35291;BME280;21411;50.024;19.220;2023-06-26T05:58:17;98936.48;;;29.28;49.94
35291;BME280;21411;50.024;19.220;2023-06-26T06:00:44;98932.46;;;29.47;49.17
35291;BME280;21411;50.024;19.220;2023-06-26T06:03:10;98932.84;;;29.52;48.96
35291;BME280;21411;50.024;19.220;2023-06-26T06:05:37;98931.20;;;29.58;49.02
35291;BME280;21411;50.024;19.220;2023-06-26T06:08:04;98928.81;;;29.67;48.87
35291;BME280;21411;50.024;19.220;2023-06-26T06:10:30;98928.67;;;29.68;48.59
35291;BME280;21411;50.024;19.220;2023-06-26T06:12:57;98929.83;;;29.75;48.55
35291;BME280;21411;50.024;19.220;2023-06-26T06:15:24;98927.75;;;29.73;47.87
35291;BME280;21411;50.024;19.220;2023-06-26T06:17:50;98928.85;;;29.71;47.89
35291;BME280;21411;50.024;19.220;2023-06-26T06:20:17;98928.05;;;29.66;47.82
35291;BME280;21411;50.024;19.220;2023-06-26T06:22:46;98926.97;;;29.69;48.13
35291;BME280;21411;50.024;19.220;2023-06-26T06:25:14;98927.23;;;29.84;48.08
35291;BME280;21411;50.024;19.220;2023-06-26T06:27:41;98927.63;;;29.86;47.45
35291;BME280;21411;50.024;19.220;2023-06-26T06:30:09;98932.63;;;29.71;47.64
35291;BME280;21411;50.024;19.220;2023-06-26T06:32:35;98927.10;;;29.83;48.06
35291;BME280;21411;50.024;19.220;2023-06-26T06:35:02;98929.17;;;29.92;48.21
35291;BME280;21411;50.024;19.220;2023-06-26T06:37:37;98923.81;;;30.08;47.94
35291;BME280;21411;50.024;19.220;2023-06-26T06:40:09;98923.33;;;30.20;47.53
35291;BME280;21411;50.024;19.220;2023-06-26T06:42:36;98922.23;;;30.16;46.77
35291;BME280;21411;50.024;19.220;2023-06-26T06:45:04;98924.06;;;29.88;46.31
35291;BME280;21411;50.024;19.220;2023-06-26T06:47:32;98925.89;;;29.75;46.71
35291;BME280;21411;50.024;19.220;2023-06-26T06:50:00;98925.64;;;29.78;46.83
35291;BME280;21411;50.024;19.220;2023-06-26T06:52:38;98927.47;;;29.84;47.07
35291;BME280;21411;50.024;19.220;2023-06-26T06:55:07;98923.78;;;30.01;46.89
35291;BME280;21411;50.024;19.220;2023-06-26T06:57:36;98923.50;;;30.12;46.63
35291;BME280;21411;50.024;19.220;2023-06-26T07:00:05;98923.65;;;30.13;46.55
35291;BME280;21411;50.024;19.220;2023-06-26T07:02:36;98926.67;;;30.15;46.66
35291;BME280;21411;50.024;19.220;2023-06-26T07:05:04;98925.52;;;30.17;46.43
35291;BME280;21411;50.024;19.220;2023-06-26T07:07:31;98924.81;;;30.02;46.00
35291;BME280;21411;50.024;19.220;2023-06-26T07:10:04;98926.89;;;29.81;46.20
35291;BME280;21411;50.024;19.220;2023-06-26T07:12:30;98924.02;;;29.84;46.70
35291;BME280;21411;50.024;19.220;2023-06-26T07:14:57;98924.00;;;29.99;46.40
35291;BME280;21411;50.024;19.220;2023-06-26T07:17:24;98921.58;;;29.97;46.07
35291;BME280;21411;50.024;19.220;2023-06-26T07:19:50;98917.61;;;29.89;46.12
35291;BME280;21411;50.024;19.220;2023-06-26T07:22:17;98918.15;;;29.90;46.37
35291;BME280;21411;50.024;19.220;2023-06-26T07:24:47;98914.69;;;29.93;46.10
35291;BME280;21411;50.024;19.220;2023-06-26T07:27:17;98919.36;;;29.92;45.83
35291;BME280;21411;50.024;19.220;2023-06-26T07:29:45;98920.66;;;29.86;45.54
35291;BME280;21411;50.024;19.220;2023-06-26T07:32:11;98920.23;;;29.83;45.63
35291;BME280;21411;50.024;19.220;2023-06-26T07:34:38;98918.38;;;29.69;44.70
35291;BME280;21411;50.024;19.220;2023-06-26T07:37:05;98920.04;;;29.26;44.96
35291;BME280;21411;50.024;19.220;2023-06-26T07:39:31;98922.46;;;28.88;44.99
35291;BME280;21411;50.024;19.220;2023-06-26T07:41:58;98922.41;;;28.63;45.75
35291;BME280;21411;50.024;19.220;2023-06-26T07:44:27;98922.23;;;28.51;46.77
35291;BME280;21411;50.024;19.220;2023-06-26T07:46:53;98920.84;;;28.46;47.11
35291;BME280;21411;50.024;19.220;2023-06-26T07:49:20;98922.14;;;28.35;47.04
35291;BME280;21411;50.024;19.220;2023-06-26T07:51:46;98919.45;;;28.08;46.75
35291;BME280;21411;50.024;19.220;2023-06-26T07:54:13;98917.09;;;27.98;47.34
35291;BME280;21411;50.024;19.220;2023-06-26T07:56:56;98914.10;;;28.07;47.22
35291;BME280;21411;50.024;19.220;2023-06-26T07:59:25;98911.99;;;28.06;47.09
35291;BME280;21411;50.024;19.220;2023-06-26T08:01:53;98914.19;;;27.98;47.14
35291;BME280;21411;50.024;19.220;2023-06-26T08:04:22;98915.20;;;27.83;46.62
35291;BME280;21411;50.024;19.220;2023-06-26T08:06:54;98919.86;;;27.47;46.13
35291;BME280;21411;50.024;19.220;2023-06-26T08:09:23;98921.53;;;27.06;46.54
35291;BME280;21411;50.024;19.220;2023-06-26T08:11:50;98919.89;;;27.06;47.99
35291;BME280;21411;50.024;19.220;2023-06-26T08:14:17;98917.88;;;27.14;47.80
35291;BME280;21411;50.024;19.220;2023-06-26T08:16:44;98913.91;;;27.13;47.80
35291;BME280;21411;50.024;19.220;2023-06-26T08:19:12;98915.61;;;27.21;47.90
35291;BME280;21411;50.024;19.220;2023-06-26T08:21:39;98910.64;;;27.30;48.29
35291;BME280;21411;50.024;19.220;2023-06-26T08:24:06;98909.52;;;27.43;48.56
35291;BME280;21411;50.024;19.220;2023-06-26T08:26:34;98912.45;;;27.52;48.57
35291;BME280;21411;50.024;19.220;2023-06-26T08:29:01;98912.52;;;27.55;48.31
35291;BME280;21411;50.024;19.220;2023-06-26T08:31:27;98905.72;;;27.64;48.32
35291;BME280;21411;50.024;19.220;2023-06-26T08:33:54;98903.24;;;27.73;48.31
35291;BME280;21411;50.024;19.220;2023-06-26T08:36:20;98903.48;;;27.93;48.52
35291;BME280;21411;50.024;19.220;2023-06-26T08:38:47;98904.39;;;28.17;48.19
35291;BME280;21411;50.024;19.220;2023-06-26T08:41:13;98904.31;;;28.31;47.74
35291;BME280;21411;50.024;19.220;2023-06-26T08:43:40;98904.70;;;28.41;47.56
35291;BME280;21411;50.024;19.220;2023-06-26T08:46:07;98904.02;;;28.57;46.73
35291;BME280;21411;50.024;19.220;2023-06-26T08:48:35;98904.00;;;28.60;45.91
35291;BME280;21411;50.024;19.220;2023-06-26T08:51:09;98900.74;;;28.72;46.42
35291;BME280;21411;50.024;19.220;2023-06-26T08:53:50;98894.50;;;28.99;46.35
35291;BME280;21411;50.024;19.220;2023-06-26T08:56:19;98897.98;;;29.10;45.88
35291;BME280;21411;50.024;19.220;2023-06-26T08:58:48;98898.65;;;28.93;45.51
35291;BME280;21411;50.024;19.220;2023-06-26T09:01:16;98897.67;;;28.66;45.07
35291;BME280;21411;50.024;19.220;2023-06-26T09:03:43;98894.53;;;28.51;45.06
35291;BME280;21411;50.024;19.220;2023-06-26T09:06:09;98892.95;;;28.69;45.27
35291;BME280;21411;50.024;19.220;2023-06-26T09:08:36;98890.13;;;28.96;44.44
35291;BME280;21411;50.024;19.220;2023-06-26T09:11:03;98888.58;;;29.12;44.76
35291;BME280;21411;50.024;19.220;2023-06-26T09:13:30;98888.28;;;29.30;44.32
35291;BME280;21411;50.024;19.220;2023-06-26T09:15:56;98893.12;;;29.23;43.81
35291;BME280;21411;50.024;19.220;2023-06-26T09:18:23;98885.77;;;29.03;43.93
35291;BME280;21411;50.024;19.220;2023-06-26T09:20:50;98891.38;;;28.71;43.49
35291;BME280;21411;50.024;19.220;2023-06-26T09:23:17;98893.55;;;28.19;43.30
35291;BME280;21411;50.024;19.220;2023-06-26T09:25:47;98891.98;;;27.78;43.42
35291;BME280;21411;50.024;19.220;2023-06-26T09:28:13;98893.21;;;27.46;43.63
35291;BME280;21411;50.024;19.220;2023-06-26T09:30:41;98894.98;;;27.27;43.99
35291;BME280;21411;50.024;19.220;2023-06-26T09:33:14;98892.40;;;27.06;44.44
35291;BME280;21411;50.024;19.220;2023-06-26T09:35:43;98889.46;;;26.95;44.84
35291;BME280;21411;50.024;19.220;2023-06-26T09:38:10;98888.92;;;27.07;45.06
35291;BME280;21411;50.024;19.220;2023-06-26T09:40:36;98882.80;;;27.51;44.93
35291;BME280;21411;50.024;19.220;2023-06-26T09:43:09;98879.79;;;27.88;44.24
35291;BME280;21411;50.024;19.220;2023-06-26T09:45:36;98885.29;;;28.09;43.81
35291;BME280;21411;50.024;19.220;2023-06-26T09:48:03;98879.89;;;28.11;43.45
35291;BME280;21411;50.024;19.220;2023-06-26T09:50:34;98875.20;;;27.96;43.57
35291;BME280;21411;50.024;19.220;2023-06-26T09:53:11;98875.80;;;27.79;43.32
35291;BME280;21411;50.024;19.220;2023-06-26T09:55:41;98874.64;;;27.89;44.58
35291;BME280;21411;50.024;19.220;2023-06-26T09:58:11;98879.43;;;28.10;44.60
35291;BME280;21411;50.024;19.220;2023-06-26T10:00:42;98872.05;;;28.48;44.74
35291;BME280;21411;50.024;19.220;2023-06-26T10:03:11;98870.27;;;28.84;43.97
35291;BME280;21411;50.024;19.220;2023-06-26T10:05:41;98869.89;;;28.98;43.24
35291;BME280;21411;50.024;19.220;2023-06-26T10:08:08;98865.54;;;28.84;42.80
35291;BME280;21411;50.024;19.220;2023-06-26T10:10:36;98866.65;;;28.77;41.98
35291;BME280;21411;50.024;19.220;2023-06-26T10:13:21;98863.28;;;28.72;41.11
35291;BME280;21411;50.024;19.220;2023-06-26T10:15:50;98862.21;;;28.75;41.45
35291;BME280;21411;50.024;19.220;2023-06-26T10:18:17;98859.94;;;28.92;41.56
35291;BME280;21411;50.024;19.220;2023-06-26T10:20:47;98856.34;;;29.22;41.48
35291;BME280;21411;50.024;19.220;2023-06-26T10:23:14;98847.57;;;29.58;40.69
35291;BME280;21411;50.024;19.220;2023-06-26T10:25:44;98846.36;;;29.67;39.74
35291;BME280;21411;50.024;19.220;2023-06-26T10:28:12;98839.78;;;29.77;39.90
35291;BME280;21411;50.024;19.220;2023-06-26T10:30:40;98835.94;;;29.83;40.43
35291;BME280;21411;50.024;19.220;2023-06-26T10:33:09;98833.58;;;29.77;39.89
35291;BME280;21411;50.024;19.220;2023-06-26T10:35:45;98834.87;;;29.49;39.54
35291;BME280;21411;50.024;19.220;2023-06-26T10:38:12;98836.40;;;29.28;39.45
35291;BME280;21411;50.024;19.220;2023-06-26T10:40:41;98833.80;;;29.19;39.88
35291;BME280;21411;50.024;19.220;2023-06-26T10:43:09;98833.49;;;29.07;39.91
35291;BME280;21411;50.024;19.220;2023-06-26T10:45:36;98830.85;;;28.88;39.72
35291;BME280;21411;50.024;19.220;2023-06-26T10:48:03;98828.77;;;28.99;40.18
35291;BME280;21411;50.024;19.220;2023-06-26T10:50:31;98828.53;;;28.98;40.23
35291;BME280;21411;50.024;19.220;2023-06-26T10:53:11;98826.45;;;29.04;41.16
35291;BME280;21411;50.024;19.220;2023-06-26T10:55:54;98828.75;;;29.08;40.54
35291;BME280;21411;50.024;19.220;2023-06-26T11:03:38;98823.09;;;29.33;39.58
35291;BME280;21411;50.024;19.220;2023-06-26T11:06:21;98822.40;;;29.34;40.15
35291;BME280;21411;50.024;19.220;2023-06-26T11:08:49;98820.51;;;29.47;40.80
35291;BME280;21411;50.024;19.220;2023-06-26T11:11:16;98820.34;;;29.59;41.10
35291;BME280;21411;50.024;19.220;2023-06-26T11:13:46;98817.29;;;29.72;40.99
35291;BME280;21411;50.024;19.220;2023-06-26T11:16:14;98815.21;;;29.81;41.28
35291;BME280;21411;50.024;19.220;2023-06-26T11:18:42;98816.20;;;29.92;41.09
35291;BME280;21411;50.024;19.220;2023-06-26T11:21:09;98815.92;;;29.92;41.10
35291;BME280;21411;50.024;19.220;2023-06-26T11:23:38;98810.15;;;29.96;40.98
35291;BME280;21411;50.024;19.220;2023-06-26T11:26:37;98808.17;;;30.02;40.41
35291;BME280;21411;50.024;19.220;2023-06-26T11:29:04;98813.39;;;29.84;39.78
35291;BME280;21411;50.024;19.220;2023-06-26T11:31:33;98811.88;;;29.71;40.15
35291;BME280;21411;50.024;19.220;2023-06-26T11:34:01;98813.32;;;29.66;39.41
35291;BME280;21411;50.024;19.220;2023-06-26T11:36:30;98811.81;;;29.40;39.18
35291;BME280;21411;50.024;19.220;2023-06-26T11:38:59;98807.30;;;29.27;39.35
35291;BME280;21411;50.024;19.220;2023-06-26T11:41:27;98805.77;;;29.22;40.16
35291;BME280;21411;50.024;19.220;2023-06-26T11:43:54;98804.73;;;29.31;39.78
35291;BME280;21411;50.024;19.220;2023-06-26T11:46:22;98811.16;;;29.18;39.48
35291;BME280;21411;50.024;19.220;2023-06-26T11:48:48;98807.34;;;29.03;39.57
35291;BME280;21411;50.024;19.220;2023-06-26T11:51:15;98810.30;;;29.09;39.85
35291;BME280;21411;50.024;19.220;2023-06-26T11:53:43;98810.61;;;29.19;39.72
35291;BME280;21411;50.024;19.220;2023-06-26T11:56:12;98806.54;;;29.32;39.89
35291;BME280;21411;50.024;19.220;2023-06-26T11:59:02;98797.61;;;29.41;39.93
35291;BME280;21411;50.024;19.220;2023-06-26T12:01:40;98793.71;;;29.46;39.75
35291;BME280;21411;50.024;19.220;2023-06-26T12:04:12;98790.19;;;29.57;39.69
35291;BME280;21411;50.024;19.220;2023-06-26T12:06:44;98788.13;;;29.65;39.38
35291;BME280;21411;50.024;19.220;2023-06-26T12:09:12;98783.40;;;29.62;39.41
35291;BME280;21411;50.024;19.220;2023-06-26T12:11:43;98780.44;;;29.60;39.20
35291;BME280;21411;50.024;19.220;2023-06-26T12:14:11;98776.14;;;29.61;39.33
35291;BME280;21411;50.024;19.220;2023-06-26T12:16:37;98772.56;;;29.78;39.38
35291;BME280;21411;50.024;19.220;2023-06-26T12:19:07;98770.68;;;29.92;38.88
35291;BME280;21411;50.024;19.220;2023-06-26T12:24:04;98765.83;;;30.14;38.86
35291;BME280;21411;50.024;19.220;2023-06-26T12:26:31;98766.48;;;30.15;38.36
35291;BME280;21411;50.024;19.220;2023-06-26T12:29:07;98766.09;;;30.13;37.86
35291;BME280;21411;50.024;19.220;2023-06-26T12:31:35;98764.08;;;30.12;37.41
35291;BME280;21411;50.024;19.220;2023-06-26T12:34:09;98763.02;;;30.07;37.52
35291;BME280;21411;50.024;19.220;2023-06-26T12:36:50;98765.52;;;30.17;37.46
35291;BME280;21411;50.024;19.220;2023-06-26T12:39:19;98766.55;;;30.19;36.96
35291;BME280;21411;50.024;19.220;2023-06-26T12:41:52;98764.85;;;30.16;36.60
35291;BME280;21411;50.024;19.220;2023-06-26T12:44:30;98763.45;;;30.14;36.36
35291;BME280;21411;50.024;19.220;2023-06-26T12:46:58;98759.23;;;30.14;36.36
35291;BME280;21411;50.024;19.220;2023-06-26T12:49:35;98756.54;;;30.13;36.33
35291;BME280;21411;50.024;19.220;2023-06-26T12:52:05;98752.77;;;30.23;36.68
35291;BME280;21411;50.024;19.220;2023-06-26T12:54:37;98749.96;;;30.27;36.31
35291;BME280;21411;50.024;19.220;2023-06-26T12:57:04;98749.82;;;30.41;36.72
35291;BME280;21411;50.024;19.220;2023-06-26T12:59:32;98748.88;;;30.54;36.56
35291;BME280;21411;50.024;19.220;2023-06-26T13:01:59;98747.14;;;30.64;36.63